createdAt,value
2022-07-26T00:01:53.250Z,60.46
2022-07-26T00:04:23.864Z,60.58
2022-07-26T00:06:54.488Z,61.16
2022-07-26T00:09:24.980Z,63.09
2022-07-26T00:11:56.184Z,63.42
2022-07-26T00:14:26.669Z,57.49
2022-07-26T00:16:57.565Z,57.64
2022-07-26T00:19:28.054Z,58.23
2022-07-26T00:22:12.712Z,59.21
2022-07-26T00:24:43.107Z,59.71
2022-07-26T00:27:13.868Z,60.18
2022-07-26T00:29:44.465Z,60.80
2022-07-26T00:32:15.746Z,61.48
2022-07-26T00:34:46.277Z,64.50
2022-07-26T00:37:20.286Z,64.41
2022-07-26T00:39:52.061Z,59.90
2022-07-26T00:42:22.778Z,57.31
2022-07-26T00:44:53.649Z,57.91
2022-07-26T00:47:24.297Z,58.91
2022-07-26T00:49:54.616Z,59.78
2022-07-26T00:52:25.713Z,61.04
2022-07-26T00:54:56.391Z,64.75
2022-07-26T00:57:27.083Z,64.32
2022-07-26T01:00:01.288Z,59.91
2022-07-26T01:02:31.844Z,57.93
2022-07-26T01:05:02.546Z,59.93
2022-07-26T01:07:33.274Z,61.07
2022-07-26T01:10:04.725Z,66.48
2022-07-26T01:12:35.260Z,64.65
2022-07-26T01:15:06.624Z,62.98
2022-07-26T01:17:38.202Z,58.86
2022-07-26T01:20:10.541Z,58.78
2022-07-26T01:22:41.159Z,60.27
2022-07-26T01:25:11.987Z,63.03
2022-07-26T01:27:42.519Z,63.37
2022-07-26T01:30:14.494Z,62.43
2022-07-26T01:32:44.913Z,58.86
2022-07-26T01:35:15.646Z,58.24
2022-07-26T01:37:46.715Z,59.76
2022-07-26T01:40:17.244Z,61.98
2022-07-26T01:42:47.739Z,64.48
2022-07-26T01:45:18.263Z,63.11
2022-07-26T01:47:50.990Z,61.65
2022-07-26T01:50:21.583Z,58.10
2022-07-26T01:52:52.514Z,57.83
2022-07-26T01:55:22.944Z,59.99
2022-07-26T01:57:53.921Z,62.60
2022-07-26T02:00:24.594Z,63.65
2022-07-26T02:02:55.477Z,62.13
2022-07-26T02:05:26.184Z,60.31
2022-07-26T02:07:56.749Z,57.64
2022-07-26T02:10:47.729Z,58.69
2022-07-26T02:13:18.659Z,60.79
2022-07-26T02:15:49.963Z,64.97
2022-07-26T02:18:20.739Z,64.21
2022-07-26T02:20:51.613Z,61.40
2022-07-26T02:23:22.921Z,58.41
2022-07-26T02:25:53.973Z,58.95
2022-07-26T02:28:24.840Z,59.76
2022-07-26T02:30:55.358Z,61.47
2022-07-26T02:33:27.694Z,64.26
2022-07-26T02:35:58.088Z,64.10
2022-07-26T02:38:28.788Z,61.75
2022-07-26T02:40:59.121Z,57.77
2022-07-26T02:43:31.136Z,57.96
2022-07-26T02:46:02.711Z,59.17
2022-07-26T02:48:33.592Z,61.87
2022-07-26T02:51:04.087Z,65.22
2022-07-26T02:53:34.895Z,64.19
2022-07-26T02:56:06.295Z,60.36
2022-07-26T02:58:38.279Z,58.43
2022-07-26T03:01:08.940Z,58.23
2022-07-26T03:03:39.666Z,59.77
2022-07-26T03:06:10.409Z,62.78
2022-07-26T03:08:41.136Z,64.06
2022-07-26T03:11:12.328Z,60.76
2022-07-26T03:13:43.421Z,58.57
2022-07-26T03:16:14.031Z,58.60
2022-07-26T03:18:45.534Z,59.84
2022-07-26T03:21:15.946Z,61.17
2022-07-26T03:23:46.905Z,64.84
2022-07-26T03:26:17.400Z,64.71
2022-07-26T03:28:48.227Z,61.77
2022-07-26T03:31:19.104Z,58.60
2022-07-26T03:33:49.999Z,57.74
2022-07-26T03:36:20.838Z,59.05
2022-07-26T03:38:51.774Z,60.38
2022-07-26T03:41:22.296Z,63.97
2022-07-26T03:43:53.079Z,64.18
2022-07-26T03:46:23.567Z,60.86
2022-07-26T03:48:54.356Z,57.55
2022-07-26T03:51:25.035Z,57.13
2022-07-26T03:53:55.800Z,58.95
2022-07-26T03:56:32.084Z,60.55
2022-07-26T03:59:03.471Z,61.36
2022-07-26T04:01:35.176Z,64.60
2022-07-26T04:04:06.708Z,63.60
2022-07-26T04:06:39.830Z,60.73
2022-07-26T04:09:10.430Z,57.47
2022-07-26T04:11:41.289Z,56.79
2022-07-26T04:14:12.228Z,57.79
2022-07-26T04:16:43.772Z,58.99
2022-07-26T04:19:14.978Z,59.90
2022-07-26T04:21:45.346Z,63.17
2022-07-26T04:24:15.818Z,63.70
2022-07-26T04:26:47.173Z,60.30
2022-07-26T04:29:17.900Z,57.10
2022-07-26T04:31:48.430Z,55.92
2022-07-26T04:34:19.065Z,57.20
2022-07-26T04:36:49.897Z,59.32
2022-07-26T04:39:24.930Z,60.54
2022-07-26T04:41:55.561Z,64.10
2022-07-26T04:44:26.165Z,63.57
2022-07-26T04:46:56.656Z,58.66
2022-07-26T04:49:27.461Z,57.64
2022-07-26T04:51:59.714Z,58.47
2022-07-26T04:54:30.496Z,59.64
2022-07-26T04:57:01.194Z,60.77
2022-07-26T04:59:32.761Z,63.88
2022-07-26T05:02:03.737Z,62.73
2022-07-26T05:04:34.469Z,58.72
2022-07-26T05:07:04.816Z,57.24
2022-07-26T05:09:35.060Z,58.10
2022-07-26T05:12:06.137Z,59.33
2022-07-26T05:14:37.754Z,59.83
2022-07-26T05:17:10.452Z,60.66
2022-07-26T05:19:43.772Z,63.61
2022-07-26T05:22:17.031Z,62.07
2022-07-26T05:24:47.550Z,56.85
2022-07-26T05:27:18.382Z,56.10
2022-07-26T05:29:48.644Z,57.24
2022-07-26T05:32:19.848Z,58.38
2022-07-26T05:34:50.376Z,58.62
2022-07-26T05:37:21.308Z,59.38
2022-07-26T05:39:52.023Z,60.16
2022-07-26T05:42:23.159Z,60.04
2022-07-26T05:44:53.729Z,61.24
2022-07-26T05:47:26.993Z,61.14
2022-07-26T05:49:57.206Z,60.97
2022-07-26T05:52:27.900Z,61.89
2022-07-26T05:54:58.390Z,61.86
2022-07-26T05:57:28.805Z,64.12
2022-07-26T05:59:59.157Z,62.78
2022-07-26T06:02:29.728Z,57.79
2022-07-26T06:05:00.180Z,54.83
2022-07-26T06:07:31.020Z,55.43
2022-07-26T06:10:01.848Z,55.52
2022-07-26T06:12:32.606Z,55.93
2022-07-26T06:15:03.642Z,55.92
2022-07-26T06:17:45.588Z,56.01
2022-07-26T06:20:16.165Z,55.58
2022-07-26T06:22:46.907Z,57.44
2022-07-26T06:25:17.576Z,58.51
2022-07-26T06:27:48.161Z,59.15
2022-07-26T06:30:18.830Z,60.54
2022-07-26T06:32:49.742Z,61.02
2022-07-26T06:35:20.200Z,60.52
2022-07-26T06:37:51.194Z,60.66
2022-07-26T06:40:21.687Z,60.71
2022-07-26T06:46:01.726Z,61.05
2022-07-26T06:48:32.938Z,61.82
2022-07-26T06:51:05.327Z,59.60
2022-07-26T06:53:36.047Z,58.12
2022-07-26T06:56:06.895Z,57.84
2022-07-26T06:58:37.717Z,58.25
2022-07-26T07:01:08.428Z,59.92
2022-07-26T07:03:39.146Z,60.89
2022-07-26T07:06:09.536Z,60.87
2022-07-26T07:08:39.782Z,60.79
2022-07-26T07:11:12.912Z,60.40
2022-07-26T07:13:44.113Z,60.32
2022-07-26T07:16:14.931Z,59.73
2022-07-26T07:18:45.286Z,59.05
2022-07-26T07:21:16.132Z,58.17
2022-07-26T07:23:46.589Z,57.36
2022-07-26T07:26:17.841Z,57.16
2022-07-26T07:28:48.600Z,57.23
2022-07-26T07:31:20.032Z,57.01
2022-07-26T07:33:53.331Z,56.81
2022-07-26T07:36:24.993Z,56.95
2022-07-26T07:38:55.392Z,56.11
2022-07-26T07:41:28.274Z,55.45
2022-07-26T07:43:58.529Z,56.07
2022-07-26T07:46:29.555Z,56.70
2022-07-26T07:49:00.856Z,56.30
2022-07-26T07:51:32.741Z,56.43
2022-07-26T07:54:05.587Z,56.28
2022-07-26T07:56:36.973Z,56.68
2022-07-26T07:59:07.783Z,56.15
2022-07-26T08:01:39.709Z,56.17
2022-07-26T08:04:11.378Z,56.05
2022-07-26T08:06:42.678Z,56.93
2022-07-26T08:09:20.992Z,57.33
2022-07-26T08:11:52.535Z,57.58
2022-07-26T08:14:22.793Z,58.10
2022-07-26T08:16:54.235Z,58.37
2022-07-26T08:19:26.174Z,59.26
2022-07-26T08:22:12.110Z,59.18
2022-07-26T08:24:44.942Z,59.91
2022-07-26T08:27:15.881Z,61.06
2022-07-26T08:29:46.238Z,61.35
2022-07-26T08:32:17.691Z,62.14
2022-07-26T08:34:47.968Z,60.51
2022-07-26T08:37:18.885Z,58.49
2022-07-26T08:39:49.750Z,60.58
2022-07-26T08:42:23.135Z,62.23
2022-07-26T08:44:54.355Z,59.59
2022-07-26T08:47:37.806Z,60.60
2022-07-26T08:50:11.212Z,62.28
2022-07-26T08:52:42.972Z,59.11
2022-07-26T08:55:16.916Z,60.36
2022-07-26T08:57:47.780Z,62.20
2022-07-26T09:00:20.218Z,58.76
2022-07-26T09:02:51.123Z,60.78
2022-07-26T09:05:21.962Z,61.84
2022-07-26T09:07:53.703Z,59.38
2022-07-26T09:10:24.450Z,62.64
2022-07-26T09:12:59.375Z,60.57
2022-07-26T09:15:29.957Z,58.29
2022-07-26T09:18:00.955Z,62.21
2022-07-26T09:20:32.891Z,61.21
2022-07-26T09:23:08.045Z,58.06
2022-07-26T09:25:39.704Z,60.27
2022-07-26T09:28:22.938Z,61.97
2022-07-26T09:30:57.903Z,58.97
2022-07-26T09:33:44.616Z,60.28
2022-07-26T09:36:15.403Z,62.37
2022-07-26T09:38:47.987Z,59.37
2022-07-26T09:41:22.149Z,60.63
2022-07-26T09:43:54.272Z,62.24
2022-07-26T09:46:26.352Z,59.09
2022-07-26T09:49:13.117Z,60.12
2022-07-26T09:51:44.997Z,62.31
2022-07-26T09:54:20.089Z,58.96
2022-07-26T09:56:51.219Z,61.71
2022-07-26T09:59:23.033Z,61.41
2022-07-26T10:01:54.991Z,58.90
2022-07-26T10:04:26.158Z,60.11
2022-07-26T10:06:58.045Z,62.32
2022-07-26T10:09:33.237Z,59.33
2022-07-26T10:12:05.132Z,60.73
2022-07-26T10:14:40.335Z,62.32
2022-07-26T10:17:30.978Z,58.91
2022-07-26T10:20:04.020Z,62.09
2022-07-26T10:22:35.813Z,61.53
2022-07-26T10:25:20.107Z,59.24
2022-07-26T10:27:51.992Z,62.47
2022-07-26T10:30:33.796Z,60.16
2022-07-26T10:33:09.128Z,60.66
2022-07-26T10:35:41.492Z,63.09
2022-07-26T10:38:12.737Z,59.36
2022-07-26T10:40:57.457Z,60.57
2022-07-26T10:43:44.259Z,62.96
2022-07-26T10:46:29.783Z,59.01
2022-07-26T10:49:03.749Z,61.60
2022-07-26T10:51:36.165Z,62.68
2022-07-26T10:54:08.213Z,59.22
2022-07-26T10:56:39.922Z,62.17
2022-07-26T10:59:10.311Z,62.17
2022-07-26T11:01:41.972Z,59.03
2022-07-26T11:04:20.594Z,62.15
2022-07-26T11:06:51.644Z,63.04
2022-07-26T11:09:23.697Z,61.20
2022-07-26T11:11:56.207Z,60.78
2022-07-26T11:14:27.309Z,63.48
2022-07-26T11:16:58.245Z,63.29
2022-07-26T11:19:29.591Z,62.59
2022-07-26T11:22:01.917Z,61.50
2022-07-26T11:24:32.257Z,60.82
2022-07-26T11:27:05.214Z,60.87
2022-07-26T11:29:40.538Z,60.55
2022-07-26T11:32:18.793Z,60.32
2022-07-26T11:34:49.349Z,59.89
2022-07-26T11:37:20.599Z,62.07
2022-07-26T11:39:51.024Z,64.31
2022-07-26T11:42:22.379Z,61.08
2022-07-26T11:44:54.286Z,60.25
2022-07-26T11:47:26.722Z,61.47
2022-07-26T11:50:21.631Z,62.97
2022-07-26T11:52:48.758Z,62.41
2022-07-26T11:55:27.758Z,61.57
2022-07-26T11:58:05.475Z,61.24
2022-07-26T12:00:35.902Z,60.20
2022-07-26T12:03:06.783Z,59.73
2022-07-26T12:05:37.405Z,60.63
2022-07-26T12:08:08.907Z,63.21
2022-07-26T12:10:39.350Z,63.33
2022-07-26T12:13:11.441Z,60.83
2022-07-26T12:15:51.762Z,61.28
2022-07-26T12:18:29.565Z,63.41
2022-07-26T12:21:04.986Z,61.21
2022-07-26T12:23:43.521Z,61.18
2022-07-26T12:26:21.022Z,60.61
2022-07-26T12:28:52.017Z,61.48
2022-07-26T12:31:29.367Z,61.53
2022-07-26T12:34:00.703Z,60.24
2022-07-26T12:36:34.598Z,61.78
2022-07-26T12:39:06.006Z,62.98
2022-07-26T12:41:37.648Z,63.63
2022-07-26T12:44:12.702Z,65.16
2022-07-26T12:46:45.015Z,64.30
2022-07-26T12:49:16.288Z,61.05
2022-07-26T12:51:46.717Z,61.71
2022-07-26T12:54:17.933Z,63.23
2022-07-26T12:56:48.725Z,64.56
2022-07-26T12:59:20.091Z,65.78
2022-07-26T13:01:50.470Z,66.04
2022-07-26T13:04:21.818Z,67.88
2022-07-26T13:06:52.629Z,66.75
2022-07-26T13:09:23.553Z,66.90
2022-07-26T13:11:53.978Z,67.67
2022-07-26T13:14:25.017Z,69.03
2022-07-26T13:16:55.825Z,70.43
2022-07-26T13:19:26.795Z,69.65
2022-07-26T13:21:58.304Z,70.59
2022-07-26T13:24:29.852Z,68.55
2022-07-26T13:27:00.828Z,69.55
2022-07-26T13:29:31.720Z,71.17
2022-07-26T13:32:02.403Z,70.85
2022-07-26T13:34:35.222Z,69.54
2022-07-26T13:37:06.967Z,69.59
2022-07-26T13:39:39.262Z,70.15
2022-07-26T13:42:11.591Z,71.21
2022-07-26T13:44:42.930Z,73.32
2022-07-26T13:47:13.354Z,73.97
2022-07-26T13:49:44.810Z,74.88
2022-07-26T13:52:16.795Z,73.93
2022-07-26T13:54:47.916Z,72.75
2022-07-26T13:57:18.801Z,73.31
2022-07-26T13:59:49.687Z,74.30
2022-07-26T14:02:21.076Z,71.75
2022-07-26T14:04:52.391Z,69.34
2022-07-26T14:07:22.632Z,69.58
2022-07-26T14:09:53.487Z,70.02
2022-07-26T14:12:23.966Z,71.26
2022-07-26T14:14:55.152Z,72.84
2022-07-26T14:17:25.479Z,70.93
2022-07-26T14:19:56.233Z,70.99
2022-07-26T14:22:26.643Z,71.55
2022-07-26T14:24:57.734Z,71.80
2022-07-26T14:27:28.266Z,71.96
2022-07-26T14:29:59.100Z,74.36
2022-07-26T14:32:29.929Z,71.60
2022-07-26T14:35:00.832Z,71.97
2022-07-26T14:37:44.264Z,73.16
2022-07-26T14:40:17.792Z,74.10
2022-07-26T14:42:48.437Z,72.06
2022-07-26T14:45:19.571Z,71.52
2022-07-26T14:47:50.000Z,71.07
2022-07-26T14:50:23.391Z,71.51
2022-07-26T14:52:52.178Z,74.07
2022-07-26T14:55:25.314Z,77.01
2022-07-26T14:57:56.526Z,74.73
2022-07-26T15:00:27.277Z,72.50
2022-07-26T15:02:58.248Z,71.85
2022-07-26T15:05:29.090Z,70.97
2022-07-26T15:08:02.832Z,71.49
2022-07-26T15:10:36.553Z,72.43
2022-07-26T15:13:08.385Z,73.09
2022-07-26T15:15:39.168Z,68.76
2022-07-26T15:18:10.059Z,67.01
2022-07-26T15:20:41.486Z,70.54
2022-07-26T15:23:12.658Z,72.11
2022-07-26T15:25:43.589Z,72.94
2022-07-26T15:28:14.321Z,69.24
2022-07-26T15:30:45.342Z,69.18
2022-07-26T15:33:15.995Z,68.94
2022-07-26T15:35:46.668Z,69.76
2022-07-26T15:38:17.253Z,67.93
2022-07-26T15:40:48.072Z,67.13
2022-07-26T15:43:21.985Z,69.21
2022-07-26T15:45:57.842Z,71.25
2022-07-26T15:48:31.175Z,70.29
2022-07-26T15:51:02.652Z,68.21
2022-07-26T15:53:35.868Z,67.79
2022-07-26T15:56:06.828Z,67.42
2022-07-26T15:58:38.478Z,67.85
2022-07-26T16:01:09.663Z,67.30
2022-07-26T16:03:40.252Z,68.93
2022-07-26T16:06:11.916Z,67.31
2022-07-26T16:08:58.886Z,67.06
2022-07-26T16:11:33.537Z,67.04
2022-07-26T16:14:04.282Z,66.86
2022-07-26T16:16:35.257Z,69.67
2022-07-26T16:19:05.957Z,69.11
2022-07-26T16:21:37.346Z,70.38
2022-07-26T16:24:08.450Z,70.85
2022-07-26T16:26:39.395Z,70.07
2022-07-26T16:29:10.460Z,69.12
2022-07-26T16:31:42.199Z,70.92
2022-07-26T16:34:12.908Z,71.22
2022-07-26T16:36:43.531Z,70.83
2022-07-26T16:39:14.553Z,70.25
2022-07-26T16:41:46.244Z,69.63
2022-07-26T16:44:16.763Z,70.43
2022-07-26T16:46:48.172Z,72.54
2022-07-26T16:49:18.994Z,71.68
2022-07-26T16:51:49.828Z,70.72
2022-07-26T16:54:21.544Z,67.57
2022-07-26T16:56:52.889Z,69.88
2022-07-26T16:59:23.628Z,69.15
2022-07-26T17:01:54.645Z,66.98
2022-07-26T17:04:25.397Z,68.06
2022-07-26T17:07:22.188Z,67.58
2022-07-26T17:09:46.932Z,69.58
2022-07-26T17:12:17.872Z,68.88
2022-07-26T17:14:48.397Z,67.18
2022-07-26T17:17:19.033Z,68.78
2022-07-26T17:19:49.682Z,69.93
2022-07-26T17:22:20.814Z,66.76
2022-07-26T17:24:51.439Z,68.49
2022-07-26T17:27:22.589Z,67.63
2022-07-26T17:29:53.622Z,68.18
2022-07-26T17:32:24.364Z,68.58
2022-07-26T17:34:56.517Z,67.30
2022-07-26T17:37:27.607Z,66.06
2022-07-26T17:39:59.047Z,66.48
2022-07-26T17:42:30.461Z,68.20
2022-07-26T17:45:01.557Z,67.09
2022-07-26T17:47:32.231Z,68.47
2022-07-26T17:50:35.922Z,67.42
2022-07-26T17:52:55.107Z,67.54
2022-07-26T17:55:26.307Z,67.56
2022-07-26T17:57:56.871Z,68.29
2022-07-26T18:00:29.110Z,67.54
2022-07-26T18:03:00.123Z,69.14
2022-07-26T18:05:35.165Z,68.56
2022-07-26T18:08:09.017Z,69.66
2022-07-26T18:10:39.859Z,69.94
2022-07-26T18:13:10.419Z,68.66
2022-07-26T18:15:41.245Z,66.32
2022-07-26T18:18:12.090Z,67.60
2022-07-26T18:20:42.797Z,67.43
2022-07-26T18:23:13.418Z,67.77
2022-07-26T18:25:44.249Z,66.63
2022-07-26T18:28:16.322Z,67.47
2022-07-26T18:30:47.267Z,67.61
2022-07-26T18:33:17.822Z,71.40
2022-07-26T18:35:48.569Z,69.84
2022-07-26T18:38:19.151Z,69.93
2022-07-26T18:40:49.708Z,67.71
2022-07-26T18:43:20.418Z,68.23
2022-07-26T18:45:51.145Z,68.79
2022-07-26T18:48:22.540Z,67.87
2022-07-26T18:50:56.196Z,68.05
2022-07-26T18:53:27.040Z,65.90
2022-07-26T18:55:57.662Z,66.53
2022-07-26T18:58:29.009Z,67.71
2022-07-26T19:00:59.992Z,68.82
2022-07-26T19:03:34.946Z,69.09
2022-07-26T19:06:06.122Z,68.89
2022-07-26T19:08:36.599Z,68.34
2022-07-26T19:11:07.500Z,67.69
2022-07-26T19:13:38.947Z,68.87
2022-07-26T19:16:09.622Z,69.35
2022-07-26T19:18:40.143Z,71.47
2022-07-26T19:21:11.003Z,73.36
2022-07-26T19:23:41.768Z,72.10
2022-07-26T19:26:12.565Z,71.56
2022-07-26T19:28:43.337Z,73.65
2022-07-26T19:31:14.397Z,75.16
2022-07-26T19:33:45.243Z,74.25
2022-07-26T19:36:18.223Z,72.65
2022-07-26T19:38:57.843Z,72.69
2022-07-26T19:41:28.449Z,73.32
2022-07-26T19:43:59.204Z,67.95
2022-07-26T19:46:30.470Z,69.42
2022-07-26T19:49:05.133Z,72.54
2022-07-26T19:51:35.805Z,73.09
2022-07-26T19:54:06.945Z,72.50
2022-07-26T19:56:37.791Z,71.92
2022-07-26T19:59:08.717Z,68.93
2022-07-26T20:01:39.710Z,70.03
2022-07-26T20:04:10.241Z,69.94
2022-07-26T20:06:40.821Z,68.70
2022-07-26T20:09:11.846Z,70.74
2022-07-26T20:11:43.214Z,68.91
2022-07-26T20:14:14.257Z,68.31
2022-07-26T20:16:45.288Z,67.17
2022-07-26T20:19:16.226Z,70.37
2022-07-26T20:21:46.755Z,69.41
2022-07-26T20:24:19.326Z,72.17
2022-07-26T20:26:49.915Z,69.93
2022-07-26T20:29:20.830Z,69.32
2022-07-26T20:31:51.834Z,68.15
2022-07-26T20:34:22.467Z,69.06
2022-07-26T20:36:54.583Z,70.38
2022-07-26T20:39:26.403Z,69.22
2022-07-26T20:41:57.440Z,68.22
2022-07-26T20:44:28.718Z,69.58
2022-07-26T20:46:59.764Z,70.22
2022-07-26T20:49:30.737Z,68.41
2022-07-26T20:52:04.533Z,69.43
2022-07-26T20:54:35.086Z,67.21
2022-07-26T20:57:05.812Z,67.49
2022-07-26T20:59:36.459Z,68.25
2022-07-26T21:02:07.283Z,67.88
2022-07-26T21:04:37.923Z,68.43
2022-07-26T21:07:08.616Z,69.38
2022-07-26T21:09:38.968Z,70.93
2022-07-26T21:12:10.526Z,72.25
2022-07-26T21:14:41.281Z,71.04
2022-07-26T21:17:12.389Z,67.70
2022-07-26T21:19:43.133Z,67.70
2022-07-26T21:22:14.064Z,66.75
2022-07-26T21:24:44.706Z,68.24
2022-07-26T21:27:17.179Z,68.71
2022-07-26T21:29:47.707Z,68.24
2022-07-26T21:32:18.440Z,69.95
2022-07-26T21:34:48.975Z,71.79
2022-07-26T21:37:19.920Z,71.42
2022-07-26T21:39:50.645Z,71.02
2022-07-26T21:42:21.591Z,69.36
2022-07-26T21:44:57.577Z,70.05
2022-07-26T21:47:28.207Z,67.75
2022-07-26T21:49:58.697Z,67.44
2022-07-26T21:52:29.182Z,66.02
2022-07-26T21:54:59.747Z,66.62
2022-07-26T21:57:30.517Z,66.77
2022-07-26T22:00:01.423Z,67.33
2022-07-26T22:02:32.184Z,67.13
2022-07-26T22:05:03.609Z,67.58
2022-07-26T22:07:34.147Z,66.46
2022-07-26T22:10:05.072Z,66.56
2022-07-26T22:12:35.490Z,66.97
2022-07-26T22:15:07.506Z,67.89
2022-07-26T22:17:39.825Z,70.57
2022-07-26T22:20:11.898Z,72.43
2022-07-26T22:22:42.426Z,70.74
2022-07-26T22:25:13.221Z,69.44
2022-07-26T22:27:43.786Z,69.46
2022-07-26T22:30:14.666Z,71.81
2022-07-26T22:32:45.487Z,72.59
2022-07-26T22:35:16.298Z,71.11
2022-07-26T22:37:46.822Z,68.76
2022-07-26T22:40:17.523Z,67.51
2022-07-26T22:42:48.496Z,68.85
2022-07-26T22:45:19.479Z,67.10
2022-07-26T22:47:56.117Z,65.55
2022-07-26T22:50:28.230Z,65.87
2022-07-26T22:52:58.799Z,66.84
2022-07-26T22:55:29.919Z,67.82
2022-07-26T22:58:01.030Z,67.33
2022-07-26T23:00:32.025Z,67.14
2022-07-26T23:03:03.062Z,68.73
2022-07-26T23:05:45.919Z,68.34
2022-07-26T23:08:45.134Z,66.16
2022-07-26T23:11:08.996Z,65.41
2022-07-26T23:13:39.696Z,65.63
2022-07-26T23:16:10.474Z,66.30
2022-07-26T23:18:41.310Z,65.64
2022-07-26T23:21:12.188Z,66.04
2022-07-26T23:23:42.748Z,66.34
2022-07-26T23:26:13.662Z,68.08
2022-07-26T23:28:44.285Z,66.88
2022-07-26T23:31:15.315Z,65.67
2022-07-26T23:33:51.857Z,64.78
2022-07-26T23:36:26.642Z,65.33
2022-07-26T23:38:58.185Z,67.44
2022-07-26T23:41:29.113Z,69.10
2022-07-26T23:43:59.554Z,66.95
2022-07-26T23:46:30.633Z,66.34
2022-07-26T23:49:01.594Z,65.16
2022-07-26T23:51:32.559Z,65.38
2022-07-26T23:54:03.398Z,66.74
2022-07-26T23:56:34.633Z,65.02
2022-07-26T23:59:05.411Z,64.65
